createdAt,value
2017-03-13T00:00:15.542Z,66.33
2017-03-13T00:01:24.861Z,65.95
2017-03-13T00:02:34.538Z,66.14
2017-03-13T00:03:43.543Z,65.95
2017-03-13T00:04:53.364Z,66.23
2017-03-13T00:06:02.687Z,66.33
2017-03-13T00:07:13.941Z,66.23
2017-03-13T00:08:22.950Z,66.04
2017-03-13T00:09:33.282Z,66.33
2017-03-13T00:10:43.437Z,66.04
2017-03-13T00:11:53.466Z,66.42
2017-03-13T00:13:03.417Z,66.42
2017-03-13T00:14:12.570Z,66.52
2017-03-13T00:15:22.978Z,66.42
2017-03-13T00:16:32.005Z,66.89
2017-03-13T00:17:41.359Z,66.42
2017-03-13T00:18:50.607Z,66.33
2017-03-13T00:19:59.964Z,66.42
2017-03-13T00:21:09.034Z,66.8
2017-03-13T00:22:19.165Z,66.71
2017-03-13T00:23:28.287Z,66.99
2017-03-13T00:24:39.598Z,67.08
2017-03-13T00:25:51.085Z,67.14
2017-03-13T00:27:00.767Z,67.14
2017-03-13T00:28:12.977Z,67.18
2017-03-13T00:29:24.781Z,67.52
2017-03-13T00:30:34.030Z,67.46
2017-03-13T00:31:45.778Z,67.24
2017-03-13T00:32:55.052Z,67.81
2017-03-13T00:34:06.001Z,68
2017-03-13T00:35:17.139Z,67.81
2017-03-13T00:36:27.088Z,68.1
2017-03-13T00:37:37.597Z,67.81
2017-03-13T00:38:46.593Z,67.9
2017-03-13T00:39:56.302Z,67.81
2017-03-13T00:41:05.304Z,68.29
2017-03-13T00:42:15.929Z,68
2017-03-13T00:43:27.672Z,68
2017-03-13T00:44:37.448Z,68.29
2017-03-13T00:45:49.279Z,68.1
2017-03-13T00:47:00.968Z,68.29
2017-03-13T00:48:10.355Z,68.29
2017-03-13T00:49:20.253Z,68.85
2017-03-13T00:50:29.390Z,68.38
2017-03-13T00:51:38.752Z,68.38
2017-03-13T00:52:47.763Z,68.29
2017-03-13T00:53:59.730Z,68.57
2017-03-13T00:55:11.850Z,68.19
2017-03-13T00:56:20.839Z,68.19
2017-03-13T00:57:30.657Z,68.29
2017-03-13T00:58:39.833Z,68.85
2017-03-13T00:59:51.877Z,68.85
2017-03-13T01:01:03.865Z,68.95
2017-03-13T01:02:13.292Z,68.85
2017-03-13T01:03:24.498Z,68.95
2017-03-13T01:04:33.492Z,68.76
2017-03-13T01:05:44.006Z,68.48
2017-03-13T01:06:55.886Z,69.13
2017-03-13T01:08:05.148Z,69.04
2017-03-13T01:09:17.346Z,69.13
2017-03-13T01:10:29.619Z,69.23
2017-03-13T01:11:39.013Z,69.23
2017-03-13T01:12:49.745Z,69.23
2017-03-13T01:13:58.735Z,69.04
2017-03-13T01:15:08.937Z,68.95
2017-03-13T01:16:18.925Z,68.95
2017-03-13T01:17:28.163Z,68.95
2017-03-13T01:18:39.515Z,69.04
2017-03-13T01:19:48.864Z,69.23
2017-03-13T01:20:58.897Z,69.61
2017-03-13T01:22:07.983Z,69.23
2017-03-13T01:23:19.530Z,69.13
2017-03-13T01:24:30.008Z,69.61
2017-03-13T01:25:39.080Z,69.04
2017-03-13T01:26:48.729Z,68.85
2017-03-13T01:27:57.990Z,69.04
2017-03-13T01:29:08.090Z,69.04
2017-03-13T01:30:18.250Z,69.33
2017-03-13T01:31:30.374Z,68.95
2017-03-13T01:32:42.377Z,68.95
2017-03-13T01:33:52.604Z,69.13
2017-03-13T01:35:04.258Z,69.04
2017-03-13T01:36:16.234Z,69.33
2017-03-13T01:37:25.543Z,69.61
2017-03-13T01:38:36.625Z,69.42
2017-03-13T01:39:45.616Z,69.33
2017-03-13T01:40:56.659Z,69.42
2017-03-13T01:42:07.988Z,69.33
2017-03-13T01:43:17.215Z,69.42
2017-03-13T01:44:28.353Z,69.61
2017-03-13T01:45:37.348Z,69.42
2017-03-13T01:46:47.962Z,69.52
2017-03-13T01:47:59.527Z,69.9
2017-03-13T01:49:09.406Z,69.71
2017-03-13T01:50:21.037Z,69.9
2017-03-13T01:51:33.052Z,69.99
2017-03-13T01:52:42.634Z,69.99
2017-03-13T01:53:52.597Z,70.09
2017-03-13T01:55:01.593Z,69.99
2017-03-13T01:56:12.543Z,69.9
2017-03-13T01:57:21.548Z,69.8
2017-03-13T01:58:32.933Z,70.09
2017-03-13T01:59:43.611Z,70.18
2017-03-13T02:00:52.855Z,70.09
2017-03-13T02:02:02.890Z,70.47
2017-03-13T02:03:11.971Z,70.09
2017-03-13T02:04:24.027Z,69.99
2017-03-13T02:05:35.207Z,70.09
2017-03-13T02:06:45.037Z,70.28
2017-03-13T02:07:56.514Z,70.65
2017-03-13T02:09:05.707Z,70.37
2017-03-13T02:10:15.935Z,70.09
2017-03-13T02:11:27.696Z,70.47
2017-03-13T02:12:36.686Z,70.37
2017-03-13T02:13:48.490Z,70.28
2017-03-13T02:14:57.566Z,70.28
2017-03-13T02:16:08.368Z,70.37
2017-03-13T02:17:19.565Z,70.09
2017-03-13T02:18:28.670Z,69.99
2017-03-13T02:19:40.398Z,69.9
2017-03-13T02:20:49.481Z,69.99
2017-03-13T02:22:00.062Z,70.09
2017-03-13T02:23:10.126Z,69.9
2017-03-13T02:24:19.468Z,69.71
2017-03-13T02:25:28.547Z,69.9
2017-03-13T02:26:37.540Z,69.9
2017-03-13T02:27:47.315Z,69.99
2017-03-13T02:28:56.435Z,69.99
2017-03-13T02:30:05.942Z,69.9
2017-03-13T02:31:15.111Z,69.8
2017-03-13T02:32:24.620Z,69.99
2017-03-13T02:33:34.088Z,69.42
2017-03-13T02:34:44.490Z,69.42
2017-03-13T02:35:53.774Z,69.42
2017-03-13T02:37:04.212Z,69.42
2017-03-13T02:38:13.300Z,69.33
2017-03-13T02:39:23.023Z,69.42
2017-03-13T02:40:32.019Z,69.99
2017-03-13T02:41:41.183Z,69.71
2017-03-13T02:42:50.418Z,69.71
2017-03-13T02:44:00.022Z,69.8
2017-03-13T02:45:09.309Z,69.71
2017-03-13T02:46:19.058Z,69.71
2017-03-13T02:47:28.138Z,69.42
2017-03-13T02:48:38.776Z,69.42
2017-03-13T02:49:47.771Z,69.23
2017-03-13T02:50:58.499Z,69.33
2017-03-13T02:52:08.384Z,68.95
2017-03-13T02:53:17.382Z,69.04
2017-03-13T02:54:27.274Z,69.61
2017-03-13T02:55:36.360Z,69.33
2017-03-13T02:56:46.493Z,69.42
2017-03-13T02:57:56.170Z,69.8
2017-03-13T02:59:05.298Z,69.33
2017-03-13T03:00:14.428Z,69.52
2017-03-13T03:01:24.065Z,69.52
2017-03-13T03:02:33.568Z,70.09
2017-03-13T03:03:42.947Z,69.42
2017-03-13T03:04:52.286Z,69.33
2017-03-13T03:06:01.493Z,69.23
2017-03-13T03:07:10.745Z,69.9
2017-03-13T03:08:20.293Z,69.71
2017-03-13T03:09:29.551Z,69.99
2017-03-13T03:10:38.920Z,70.18
2017-03-13T03:11:48.750Z,69.71
2017-03-13T03:12:58.637Z,69.52
2017-03-13T03:14:08.302Z,69.99
2017-03-13T03:15:18.907Z,69.99
2017-03-13T03:16:27.893Z,70.09
2017-03-13T03:17:37.850Z,70.09
2017-03-13T03:18:46.976Z,69.99
2017-03-13T03:19:57.829Z,70.28
2017-03-13T03:21:07.317Z,70.09
2017-03-13T03:22:16.481Z,69.99
2017-03-13T03:23:25.693Z,69.99
2017-03-13T03:24:34.936Z,69.99
2017-03-13T03:25:45.897Z,70.18
2017-03-13T03:26:55.535Z,70.09
2017-03-13T03:28:07.218Z,69.9
2017-03-13T03:29:16.215Z,70.09
2017-03-13T03:30:26.802Z,69.8
2017-03-13T03:31:38.527Z,70.09
2017-03-13T03:32:47.963Z,69.8
2017-03-13T03:33:57.554Z,70.18
2017-03-13T03:35:06.620Z,70.09
2017-03-13T03:36:17.721Z,69.9
2017-03-13T03:37:27.052Z,69.9
2017-03-13T03:38:37.084Z,69.71
2017-03-13T03:39:47.331Z,69.99
2017-03-13T03:40:56.331Z,70.09
2017-03-13T03:42:06.073Z,69.9
2017-03-13T03:43:15.553Z,69.9
2017-03-13T03:44:24.703Z,70.09
2017-03-13T03:45:35.147Z,69.9
2017-03-13T03:46:47.066Z,69.8
2017-03-13T03:47:56.217Z,69.9
2017-03-13T03:49:06.560Z,69.8
2017-03-13T03:50:16.668Z,69.9
2017-03-13T03:51:25.821Z,69.9
2017-03-13T03:52:35.393Z,69.9
2017-03-13T03:53:44.461Z,69.9
2017-03-13T03:54:55.573Z,69.9
2017-03-13T03:56:04.586Z,70.15
2017-03-13T03:57:14.912Z,70.53
2017-03-13T03:58:23.894Z,70.56
2017-03-13T03:59:33.579Z,70.53
2017-03-13T04:00:42.930Z,70.18
2017-03-13T04:01:54.585Z,70.62
2017-03-13T04:03:06.137Z,70.72
2017-03-13T04:04:16.073Z,70.75
2017-03-13T04:05:27.784Z,70.65
2017-03-13T04:06:40.470Z,70.56
2017-03-13T04:07:49.735Z,70.84
2017-03-13T04:09:00.694Z,70.43
2017-03-13T04:10:09.695Z,70.65
2017-03-13T04:11:20.443Z,70.84
2017-03-13T04:12:32.433Z,70.62
2017-03-13T04:13:41.549Z,70.53
2017-03-13T04:14:51.118Z,70.47
2017-03-13T04:16:00.101Z,70.56
2017-03-13T04:17:11.777Z,70.75
2017-03-13T04:18:24.054Z,70.94
2017-03-13T04:19:33.450Z,70.81
2017-03-13T04:20:45.254Z,70.84
2017-03-13T04:21:57.756Z,70.53
2017-03-13T04:23:06.784Z,70.81
2017-03-13T04:24:18.641Z,71.41
2017-03-13T04:25:30.558Z,71.19
2017-03-13T04:26:39.825Z,71.09
2017-03-13T04:27:51.627Z,71.09
2017-03-13T04:29:03.721Z,71
2017-03-13T04:30:13.097Z,71.28
2017-03-13T04:31:25.061Z,71.28
2017-03-13T04:32:37.330Z,71.57
2017-03-13T04:33:46.418Z,71.57
2017-03-13T04:34:56.480Z,71.38
2017-03-13T04:36:06.259Z,71.57
2017-03-13T04:37:15.350Z,71.57
2017-03-13T04:38:24.939Z,71.89
2017-03-13T04:39:33.968Z,71.51
2017-03-13T04:40:42.979Z,71.57
2017-03-13T04:41:52.226Z,71.47
2017-03-13T04:43:01.295Z,71.57
2017-03-13T04:44:10.311Z,71.98
2017-03-13T04:45:19.390Z,71.8
2017-03-13T04:46:28.491Z,71.98
2017-03-13T04:47:37.806Z,71.8
2017-03-13T04:48:46.789Z,71.95
2017-03-13T04:49:55.862Z,71.8
2017-03-13T04:51:05.119Z,71.6
2017-03-13T04:52:14.115Z,71.8
2017-03-13T04:53:23.360Z,71.76
2017-03-13T04:54:32.349Z,71.85
2017-03-13T04:55:41.348Z,71.85
2017-03-13T04:56:50.425Z,71.66
2017-03-13T04:57:59.497Z,72.17
2017-03-13T04:59:08.832Z,71.85
2017-03-13T05:00:18.008Z,71.76
2017-03-13T05:01:27.104Z,72.04
2017-03-13T05:02:36.186Z,71.89
2017-03-13T05:03:46.016Z,71.7
2017-03-13T05:04:55.868Z,71.76
2017-03-13T05:06:04.952Z,72.36
2017-03-13T05:07:14.046Z,72.23
2017-03-13T05:08:23.237Z,72.52
2017-03-13T05:09:32.245Z,72.8
2017-03-13T05:10:41.493Z,72.99
2017-03-13T05:11:50.491Z,72.99
2017-03-13T05:12:59.592Z,72.99
2017-03-13T05:14:08.598Z,72.99
2017-03-13T05:15:17.591Z,73.08
2017-03-13T05:16:27.004Z,72.89
2017-03-13T05:17:36.098Z,73.08
2017-03-13T05:18:45.180Z,73.37
2017-03-13T05:19:54.261Z,73.27
2017-03-13T05:21:03.342Z,73.18
2017-03-13T05:22:12.683Z,73.27
2017-03-13T05:23:21.683Z,73.27
2017-03-13T05:24:30.882Z,73.27
2017-03-13T05:25:40.282Z,73.75
2017-03-13T05:26:49.261Z,73.65
2017-03-13T05:27:58.521Z,73.75
2017-03-13T05:29:07.563Z,73.65
2017-03-13T05:30:16.551Z,73.75
2017-03-13T05:31:25.563Z,74.22
2017-03-13T05:32:34.637Z,74.03
2017-03-13T05:33:43.730Z,74.22
2017-03-13T05:34:52.767Z,74.13
2017-03-13T05:36:01.764Z,74.22
2017-03-13T05:37:11.023Z,74.32
2017-03-13T05:38:20.322Z,74.32
2017-03-13T05:39:29.341Z,74.32
2017-03-13T05:40:38.452Z,73.56
2017-03-13T05:41:47.549Z,74.41
2017-03-13T05:42:56.564Z,74.51
2017-03-13T05:44:05.850Z,74.51
2017-03-13T05:45:14.836Z,74.6
2017-03-13T05:46:23.837Z,74.32
2017-03-13T05:47:32.829Z,74.32
2017-03-13T05:48:41.811Z,74.32
2017-03-13T05:49:51.156Z,74.32
2017-03-13T05:51:00.158Z,74.79
2017-03-13T05:52:09.318Z,74.32
2017-03-13T05:53:18.322Z,74.69
2017-03-13T05:54:27.324Z,73.65
2017-03-13T05:55:36.562Z,74.13
2017-03-13T05:56:45.673Z,74.32
2017-03-13T05:57:54.748Z,73.94
2017-03-13T05:59:03.854Z,73.75
2017-03-13T06:00:12.956Z,73.84
2017-03-13T06:01:22.314Z,73.75
2017-03-13T06:02:31.304Z,73.75
2017-03-13T06:03:40.378Z,73.84
2017-03-13T06:04:49.364Z,73.84
2017-03-13T06:05:58.436Z,73.94
2017-03-13T06:07:07.830Z,73.84
2017-03-13T06:08:17.265Z,73.75
2017-03-13T06:09:26.247Z,73.94
2017-03-13T06:10:35.219Z,73.75
2017-03-13T06:11:44.208Z,73.56
2017-03-13T06:12:53.505Z,73.18
2017-03-13T06:14:02.495Z,73.46
2017-03-13T06:15:11.677Z,73.37
2017-03-13T06:16:20.671Z,73.18
2017-03-13T06:17:29.738Z,73.22
2017-03-13T06:18:39.506Z,73.27
2017-03-13T06:19:49.218Z,73.46
2017-03-13T06:20:58.409Z,73.37
2017-03-13T06:22:07.491Z,73.18
2017-03-13T06:23:16.677Z,73.46
2017-03-13T06:24:26.009Z,73.5
2017-03-13T06:25:35.001Z,73.6
2017-03-13T06:26:44.081Z,73.31
2017-03-13T06:27:53.062Z,73.41
2017-03-13T06:29:02.089Z,73.31
2017-03-13T06:30:11.333Z,73.41
2017-03-13T06:31:20.340Z,73.41
2017-03-13T06:32:29.338Z,73.31
2017-03-13T06:33:38.456Z,73.41
2017-03-13T06:34:47.889Z,73.12
2017-03-13T06:35:57.124Z,73.12
2017-03-13T06:37:06.118Z,72.93
2017-03-13T06:38:15.130Z,72.55
2017-03-13T06:39:24.209Z,72.84
2017-03-13T06:40:33.201Z,72.36
2017-03-13T06:41:42.531Z,72.45
2017-03-13T06:42:51.543Z,72.36
2017-03-13T06:44:00.946Z,72.27
2017-03-13T06:45:15.429Z,72.17
2017-03-13T06:46:37.918Z,71.7
2017-03-13T06:47:51.980Z,71.6
2017-03-13T06:49:00.977Z,71.41
2017-03-13T06:50:10.384Z,71.7
2017-03-13T06:51:19.542Z,71.41
2017-03-13T06:52:29.058Z,71.7
2017-03-13T06:53:38.230Z,71.22
2017-03-13T06:54:47.472Z,71.32
2017-03-13T06:55:56.556Z,71.32
2017-03-13T06:57:05.767Z,71.6
2017-03-13T06:58:15.133Z,71.6
2017-03-13T06:59:24.252Z,71.22
2017-03-13T07:00:33.437Z,71.03
2017-03-13T07:01:42.580Z,71.22
2017-03-13T07:02:51.569Z,71.03
2017-03-13T07:04:00.825Z,71.13
2017-03-13T07:05:10.784Z,71.13
2017-03-13T07:06:19.803Z,71.26
2017-03-13T07:07:28.890Z,71.22
2017-03-13T07:08:37.962Z,71.17
2017-03-13T07:09:47.325Z,71.07
2017-03-13T07:10:56.457Z,71.26
2017-03-13T07:12:06.063Z,71.17
2017-03-13T07:13:15.170Z,71.07
2017-03-13T07:14:24.245Z,71.17
2017-03-13T07:15:33.518Z,71.17
2017-03-13T07:16:42.612Z,71.26
2017-03-13T07:17:51.709Z,71.26
2017-03-13T07:19:00.788Z,71.64
2017-03-13T07:20:09.851Z,71.07
2017-03-13T07:21:19.235Z,71.07
2017-03-13T07:22:28.282Z,71.36
2017-03-13T07:23:37.264Z,71.07
2017-03-13T07:24:46.337Z,71.36
2017-03-13T07:25:55.547Z,71.17
2017-03-13T07:27:04.975Z,70.59
2017-03-13T07:28:14.293Z,70.98
2017-03-13T07:29:23.377Z,70.69
2017-03-13T07:30:32.371Z,70.31
2017-03-13T07:31:41.428Z,70.4
2017-03-13T07:32:50.818Z,70.12
2017-03-13T07:33:59.918Z,70.12
2017-03-13T07:35:09.015Z,70.03
2017-03-13T07:36:17.998Z,69.65
2017-03-13T07:37:27.180Z,69.55
2017-03-13T07:38:36.489Z,69.46
2017-03-13T07:39:45.899Z,69.21
2017-03-13T07:40:55.620Z,68.98
2017-03-13T07:42:05.339Z,69.3
2017-03-13T07:43:14.591Z,69.49
2017-03-13T07:44:24.055Z,69.02
2017-03-13T07:45:33.161Z,68.54
2017-03-13T07:46:42.336Z,68.92
2017-03-13T07:47:51.334Z,68.54
2017-03-13T07:49:00.492Z,68.44
2017-03-13T07:50:10.083Z,67.97
2017-03-13T07:51:19.147Z,68.26
2017-03-13T07:52:28.590Z,67.97
2017-03-13T07:53:37.669Z,67.25
2017-03-13T07:54:47.048Z,67.34
2017-03-13T07:55:56.440Z,67.06
2017-03-13T07:57:05.762Z,66.87
2017-03-13T07:58:15.156Z,66.58
2017-03-13T07:59:24.151Z,66.58
2017-03-13T08:00:33.257Z,66.3
2017-03-13T08:01:42.776Z,66.11
2017-03-13T08:02:51.776Z,66.01
2017-03-13T08:04:00.762Z,66.01
2017-03-13T08:05:09.752Z,65.82
2017-03-13T08:06:18.746Z,65.73
2017-03-13T08:07:28.123Z,65.54
2017-03-13T08:08:37.477Z,65.25
2017-03-13T08:09:46.622Z,64.97
2017-03-13T08:10:55.987Z,65.25
2017-03-13T08:12:05.001Z,65.16
2017-03-13T08:13:14.311Z,65.16
2017-03-13T08:14:23.303Z,64.4
2017-03-13T08:15:32.415Z,64.3
2017-03-13T08:16:41.502Z,65.16
2017-03-13T08:17:50.501Z,65.06
2017-03-13T08:18:59.920Z,64.62
2017-03-13T08:20:08.918Z,64.72
2017-03-13T08:21:17.907Z,64.34
2017-03-13T08:22:26.904Z,64.53
2017-03-13T08:23:36.090Z,64.34
2017-03-13T08:24:45.332Z,64.43
2017-03-13T08:25:54.339Z,64.05
2017-03-13T08:27:03.353Z,64.05
2017-03-13T08:28:12.430Z,63.95
2017-03-13T08:29:21.607Z,64.24
2017-03-13T08:30:30.844Z,63.95
2017-03-13T08:31:39.862Z,63.76
2017-03-13T08:32:48.864Z,64.05
2017-03-13T08:33:57.938Z,63.95
2017-03-13T08:35:07.050Z,63.57
2017-03-13T08:36:16.345Z,63.57
2017-03-13T08:37:25.333Z,63.39
2017-03-13T08:38:34.430Z,63.39
2017-03-13T08:39:43.524Z,63.39
2017-03-13T08:40:52.508Z,63.01
2017-03-13T08:42:01.906Z,63.39
2017-03-13T08:43:10.995Z,63.1
2017-03-13T08:44:19.983Z,63.2
2017-03-13T08:45:29.414Z,63.1
2017-03-13T08:46:38.419Z,63.39
2017-03-13T08:47:47.720Z,62.62
2017-03-13T08:48:56.732Z,62.72
2017-03-13T08:50:06.150Z,62.62
2017-03-13T08:51:15.156Z,63.29
2017-03-13T08:52:24.322Z,62.72
2017-03-13T08:53:33.708Z,62.53
2017-03-13T08:54:42.781Z,62.24
2017-03-13T08:55:52.271Z,62.62
2017-03-13T08:57:01.257Z,62.53
2017-03-13T08:58:10.256Z,62.72
2017-03-13T08:59:19.552Z,62.81
2017-03-13T09:00:28.557Z,62.62
2017-03-13T09:01:37.572Z,62.24
2017-03-13T09:02:46.659Z,62.53
2017-03-13T09:03:55.660Z,62.81
2017-03-13T09:05:04.945Z,62.53
2017-03-13T09:06:13.969Z,62.81
2017-03-13T09:07:22.975Z,62.72
2017-03-13T09:08:32.070Z,62.34
2017-03-13T09:09:41.078Z,62.53
2017-03-13T09:10:50.349Z,62.34
2017-03-13T09:11:59.339Z,62.43
2017-03-13T09:13:08.342Z,61.87
2017-03-13T09:14:17.420Z,62.08
2017-03-13T09:15:26.432Z,62.18
2017-03-13T09:16:35.811Z,61.42
2017-03-13T09:17:44.818Z,62.08
2017-03-13T09:18:53.825Z,61.13
2017-03-13T09:20:02.842Z,60.75
2017-03-13T09:21:11.942Z,60.57
2017-03-13T09:22:21.272Z,60.41
2017-03-13T09:23:30.271Z,60.38
2017-03-13T09:24:39.259Z,59.9
2017-03-13T09:25:48.245Z,59.27
2017-03-13T09:26:57.255Z,58.98
2017-03-13T09:28:06.647Z,58.88
2017-03-13T09:29:15.629Z,58.31
2017-03-13T09:30:24.632Z,58.31
2017-03-13T09:31:33.717Z,58.12
2017-03-13T09:32:42.724Z,57.93
2017-03-13T09:33:52.037Z,58.03
2017-03-13T09:35:01.049Z,58.03
2017-03-13T09:36:10.234Z,57.74
2017-03-13T09:37:19.230Z,57.36
2017-03-13T09:38:28.642Z,57.26
2017-03-13T09:39:38.108Z,57.26
2017-03-13T09:40:47.171Z,57.36
2017-03-13T09:41:56.188Z,56.6
2017-03-13T09:43:05.358Z,56.79
2017-03-13T09:44:14.447Z,56.03
2017-03-13T09:45:23.783Z,56.31
2017-03-13T09:46:32.876Z,55.55
2017-03-13T09:47:41.970Z,55.36
2017-03-13T09:48:50.955Z,54.69
2017-03-13T09:50:00.381Z,55.08
2017-03-13T09:51:09.802Z,55.08
2017-03-13T09:52:18.924Z,54.5
2017-03-13T09:53:28.005Z,54.35
2017-03-13T09:54:37.001Z,53.87
2017-03-13T09:55:46.074Z,53.87
2017-03-13T09:56:55.423Z,53.58
2017-03-13T09:58:04.476Z,53.96
2017-03-13T09:59:13.553Z,53.49
2017-03-13T10:00:22.648Z,53.67
2017-03-13T10:01:32.101Z,53.2
2017-03-13T10:02:41.414Z,53.11
2017-03-13T10:03:50.543Z,52.63
2017-03-13T10:04:59.549Z,52.72
2017-03-13T10:06:08.671Z,52.63
2017-03-13T10:07:17.801Z,53.11
2017-03-13T10:08:27.111Z,53.11
2017-03-13T10:09:36.514Z,53.11
2017-03-13T10:10:45.526Z,53.11
2017-03-13T10:11:54.534Z,52.53
2017-03-13T10:13:03.520Z,52.25
2017-03-13T10:14:13.677Z,51.97
2017-03-13T10:15:22.676Z,52.06
2017-03-13T10:16:31.683Z,51.3
2017-03-13T10:17:41.488Z,51.2
2017-03-13T10:18:50.487Z,50.73
2017-03-13T10:19:59.876Z,50.82
2017-03-13T10:21:08.969Z,50.73
2017-03-13T10:22:18.244Z,50.85
2017-03-13T10:23:27.242Z,50.56
2017-03-13T10:24:36.343Z,49.8
2017-03-13T10:25:45.657Z,50.18
2017-03-13T10:26:54.666Z,50.46
2017-03-13T10:28:03.657Z,49.99
2017-03-13T10:29:12.663Z,49.9
2017-03-13T10:30:21.914Z,49.71
2017-03-13T10:31:31.758Z,49.71
2017-03-13T10:32:40.764Z,48.85
2017-03-13T10:33:49.761Z,48.87
2017-03-13T10:34:58.852Z,48.3
2017-03-13T10:36:07.931Z,47.34
2017-03-13T10:37:17.226Z,47.06
2017-03-13T10:38:26.333Z,46.68
2017-03-13T10:39:35.482Z,46.68
2017-03-13T10:40:44.566Z,46.49
2017-03-13T10:41:53.747Z,45.54
2017-03-13T10:43:03.143Z,45.54
2017-03-13T10:44:12.211Z,45.25
2017-03-13T10:45:21.512Z,44.01
2017-03-13T10:46:30.532Z,43.91
2017-03-13T10:47:39.634Z,44.01
2017-03-13T10:48:48.935Z,44.01
2017-03-13T10:49:57.951Z,44.13
2017-03-13T10:51:07.038Z,44.23
2017-03-13T10:52:16.048Z,44.32
2017-03-13T10:53:25.048Z,44.04
2017-03-13T10:54:34.404Z,43.94
2017-03-13T10:55:43.596Z,43.56
2017-03-13T10:56:52.589Z,43.37
2017-03-13T10:58:01.701Z,42.7
2017-03-13T10:59:10.686Z,43.08
2017-03-13T11:00:20.123Z,42.89
2017-03-13T11:01:29.534Z,43.01
2017-03-13T11:02:38.553Z,42.82
2017-03-13T11:03:47.736Z,43.08
2017-03-13T11:04:56.835Z,42.91
2017-03-13T11:06:06.147Z,42.8
2017-03-13T11:07:15.137Z,42.82
2017-03-13T11:08:24.121Z,42.82
2017-03-13T11:09:33.135Z,42.44
2017-03-13T11:10:42.155Z,42.24
2017-03-13T11:11:51.669Z,42.34
2017-03-13T11:13:00.673Z,42.8
2017-03-13T11:14:09.672Z,42.44
2017-03-13T11:15:18.669Z,43.01
2017-03-13T11:16:27.712Z,42.15
2017-03-13T11:17:37.096Z,42.24
2017-03-13T11:18:46.107Z,41.86
2017-03-13T11:19:55.302Z,41.84
2017-03-13T11:21:04.327Z,42.24
2017-03-13T11:22:13.321Z,42.34
2017-03-13T11:23:22.630Z,41.77
2017-03-13T11:24:31.714Z,41.48
2017-03-13T11:25:40.833Z,41.84
2017-03-13T11:26:49.847Z,41.29
2017-03-13T11:27:58.869Z,41.39
2017-03-13T11:29:08.168Z,41.29
2017-03-13T11:30:17.270Z,41.39
2017-03-13T11:31:26.256Z,41.29
2017-03-13T11:32:35.259Z,41
2017-03-13T11:33:44.347Z,41.1
2017-03-13T11:34:54.147Z,40.91
2017-03-13T11:36:03.218Z,40.63
2017-03-13T11:37:13.022Z,41.08
2017-03-13T11:38:22.026Z,41.17
2017-03-13T11:39:31.036Z,41.27
2017-03-13T11:40:40.278Z,40.89
2017-03-13T11:41:49.299Z,41.36
2017-03-13T11:42:58.303Z,41.27
2017-03-13T11:44:07.311Z,41.56
2017-03-13T11:45:16.318Z,42.03
2017-03-13T11:46:25.695Z,41.67
2017-03-13T11:47:34.782Z,41.58
2017-03-13T11:48:43.796Z,41.67
2017-03-13T11:49:52.833Z,41.29
2017-03-13T11:51:01.851Z,41.39
2017-03-13T11:52:11.158Z,41.77
2017-03-13T11:53:20.160Z,41.2
2017-03-13T11:54:29.143Z,40.91
2017-03-13T11:55:38.549Z,40.72
2017-03-13T11:56:47.558Z,40.63
2017-03-13T11:57:56.919Z,40.63
2017-03-13T11:59:05.939Z,40.81
2017-03-13T12:00:15.352Z,41
2017-03-13T12:01:24.526Z,41.39
2017-03-13T12:02:34.122Z,41.29
2017-03-13T12:03:43.414Z,41.39
2017-03-13T12:04:52.428Z,41.29
2017-03-13T12:06:01.419Z,41.39
2017-03-13T12:07:10.430Z,41.67
2017-03-13T12:08:19.445Z,41.58
2017-03-13T12:09:29.163Z,41.67
2017-03-13T12:10:38.168Z,41.48
2017-03-13T12:11:47.286Z,41.48
2017-03-13T12:12:56.294Z,41.39
2017-03-13T12:14:05.381Z,41.48
2017-03-13T12:15:15.087Z,41.29
2017-03-13T12:16:24.268Z,41.39
2017-03-13T12:17:33.440Z,41.29
2017-03-13T12:18:42.536Z,41.39
2017-03-13T12:19:51.548Z,41.2
2017-03-13T12:21:00.837Z,40.63
2017-03-13T12:22:10.767Z,40.72
2017-03-13T12:23:21.143Z,40.91
2017-03-13T12:24:30.149Z,40.81
2017-03-13T12:25:39.139Z,40.63
2017-03-13T12:26:48.391Z,40.44
2017-03-13T12:27:57.481Z,40.15
2017-03-13T12:29:06.487Z,40.15
2017-03-13T12:30:15.491Z,40.15
2017-03-13T12:31:24.549Z,40.53
2017-03-13T12:32:33.796Z,40.63
2017-03-13T12:33:42.890Z,41
2017-03-13T12:34:51.987Z,40.63
2017-03-13T12:36:01.188Z,40.34
2017-03-13T12:37:10.203Z,40.63
2017-03-13T12:38:19.444Z,40.91
2017-03-13T12:39:28.972Z,41.2
2017-03-13T12:40:38.072Z,41.48
2017-03-13T12:41:47.151Z,41.77
2017-03-13T12:42:56.148Z,41.29
2017-03-13T12:44:05.463Z,41.5
2017-03-13T12:45:14.465Z,40.53
2017-03-13T12:46:23.492Z,40.83
2017-03-13T12:47:32.676Z,41.29
2017-03-13T12:48:41.779Z,39.98
2017-03-13T12:49:51.055Z,39.69
2017-03-13T12:51:00.061Z,39.1
2017-03-13T12:55:17.736Z,39.59
2017-03-13T12:56:26.824Z,39.59
2017-03-13T12:57:35.932Z,39.59
2017-03-13T12:58:45.020Z,39.59
2017-03-13T12:59:54.113Z,39.22
2017-03-13T13:01:03.347Z,39.12
2017-03-13T13:02:12.341Z,38.35
2017-03-13T13:03:21.581Z,38.54
2017-03-13T13:04:30.726Z,38.54
2017-03-13T13:05:39.785Z,38.17
2017-03-13T13:06:49.005Z,37.3
2017-03-13T13:07:57.973Z,37.4
2017-03-13T13:09:07.020Z,37.21
2017-03-13T13:10:16.150Z,37.02
2017-03-13T13:11:25.115Z,37.23
2017-03-13T13:12:34.336Z,37.23
2017-03-13T13:13:43.383Z,37.23
2017-03-13T13:14:52.430Z,37.61
2017-03-13T13:16:01.389Z,37.71
2017-03-13T13:17:10.356Z,37.51
2017-03-13T13:18:19.712Z,36.94
2017-03-13T13:19:28.674Z,36.75
2017-03-13T13:20:37.639Z,36.18
2017-03-13T13:21:46.605Z,36.27
2017-03-13T13:22:55.568Z,36.66
2017-03-13T13:24:04.805Z,36.94
2017-03-13T13:25:13.766Z,36.66
2017-03-13T13:26:22.818Z,36.56
2017-03-13T13:27:31.868Z,36.66
2017-03-13T13:28:40.861Z,36.66
2017-03-13T13:29:50.074Z,36.56
2017-03-13T13:30:59.042Z,36.29
2017-03-13T13:32:08.035Z,36.1
2017-03-13T13:33:17.006Z,36
2017-03-13T13:34:26.075Z,35.91
2017-03-13T13:35:35.830Z,35.82
2017-03-13T13:36:44.797Z,36.29
2017-03-13T13:37:53.765Z,36.29
2017-03-13T13:39:02.726Z,35.91
2017-03-13T13:40:11.691Z,36
2017-03-13T13:41:21.131Z,36
2017-03-13T13:42:30.213Z,36.1
2017-03-13T13:43:39.578Z,36
2017-03-13T13:44:48.544Z,35.82
2017-03-13T13:45:57.506Z,36.19
2017-03-13T13:47:06.722Z,36.29
2017-03-13T13:48:15.697Z,35.91
2017-03-13T13:49:24.671Z,35.82
2017-03-13T13:50:33.645Z,35.91
2017-03-13T13:51:42.696Z,36.1
2017-03-13T13:52:52.135Z,36.1
2017-03-13T13:54:01.105Z,36.1
2017-03-13T13:55:10.067Z,36.1
2017-03-13T13:56:19.027Z,36.1
2017-03-13T13:57:28.000Z,36.48
2017-03-13T13:58:37.445Z,36.77
2017-03-13T13:59:46.412Z,36.27
2017-03-13T14:00:55.409Z,36.37
2017-03-13T14:02:04.371Z,36.66
2017-03-13T14:03:13.339Z,36.56
2017-03-13T14:04:22.685Z,36.77
2017-03-13T14:05:31.649Z,36.96
2017-03-13T14:06:40.697Z,36.94
2017-03-13T14:07:49.782Z,36.85
2017-03-13T14:08:58.752Z,36.75
2017-03-13T14:10:08.105Z,36.66
2017-03-13T14:11:17.068Z,36.68
2017-03-13T14:12:26.131Z,36.56
2017-03-13T14:13:35.909Z,36.37
2017-03-13T14:14:44.876Z,36.75
2017-03-13T14:15:54.150Z,36.94
2017-03-13T14:17:03.230Z,37.04
2017-03-13T14:18:12.199Z,37.42
2017-03-13T14:19:21.167Z,37.42
2017-03-13T14:20:30.153Z,37.92
2017-03-13T14:21:39.441Z,37.9
2017-03-13T14:22:48.416Z,37.8
2017-03-13T14:23:57.372Z,37.71
2017-03-13T14:25:06.346Z,37.51
2017-03-13T14:26:15.308Z,37.42
2017-03-13T14:27:24.662Z,37.53
2017-03-13T14:28:33.918Z,37.42
2017-03-13T14:29:42.916Z,37.71
2017-03-13T14:30:51.876Z,37.99
2017-03-13T14:32:00.844Z,37.99
2017-03-13T14:33:10.103Z,37.8
2017-03-13T14:34:19.066Z,37.8
2017-03-13T14:35:28.032Z,37.99
2017-03-13T14:36:36.994Z,37.71
2017-03-13T14:37:45.956Z,37.42
2017-03-13T14:38:55.215Z,37.32
2017-03-13T14:40:04.179Z,37.61
2017-03-13T14:41:13.222Z,37.71
2017-03-13T14:42:22.172Z,37.42
2017-03-13T14:43:31.139Z,37.32
2017-03-13T14:44:40.351Z,37.51
2017-03-13T14:45:49.310Z,37.51
2017-03-13T14:46:58.276Z,37.04
2017-03-13T14:48:07.649Z,37.42
2017-03-13T14:49:16.619Z,37.61
2017-03-13T14:50:25.901Z,37.9
2017-03-13T14:51:34.867Z,37.9
2017-03-13T14:52:46.490Z,37.8
2017-03-13T14:53:55.876Z,37.99
2017-03-13T14:55:04.926Z,38.09
2017-03-13T14:56:14.135Z,38.18
2017-03-13T14:57:23.191Z,37.8
2017-03-13T14:58:32.151Z,37.8
2017-03-13T14:59:41.204Z,37.8
2017-03-13T15:00:50.167Z,37.9
2017-03-13T15:01:59.430Z,37.51